Time;durP1;ratioP1;P1;durP2;ratioP2;P2;SDS_P1;SDS_P2;PMS_P1;PMS_P2;Temp;Humidity;BMP_temperature;BMP_pressure;BME280_temperature;BME280_humidity;BME280_pressure;Samples;Min_cycle;Max_cycle;Signal;HPM_P1;HPM_P2
2021/07/10 00:01:35;;;;;;;1.70;1.60;;;;;;;;;;6097122;23;20018;-66
2021/07/10 00:04:00;;;;;;;1.77;1.67;;;;;;;;;;6097125;23;20003;-66
2021/07/10 00:06:26;;;;;;;3.33;2.00;;;;;;;;;;6097218;23;20090;-66
2021/07/10 00:08:51;;;;;;;1.95;1.85;;;;;;;;;;6097154;23;20003;-66
2021/07/10 00:11:16;;;;;;;3.00;2.00;;;;;;;;;;6097002;23;20014;-66
2021/07/10 00:13:42;;;;;;;2.08;1.92;;;;;;;;;;6071824;23;20463;-66
2021/07/10 00:16:07;;;;;;;3.67;2.05;;;;;;;;;;6097067;23;20007;-66
2021/07/10 00:18:33;;;;;;;4.15;2.03;;;;;;;;;;6097094;23;19998;-66
2021/07/10 00:20:58;;;;;;;3.58;2.20;;;;;;;;;;6097205;23;20010;-66
2021/07/10 00:23:23;;;;;;;4.13;2.10;;;;;;;;;;6097082;23;20002;-66
2021/07/10 00:25:49;;;;;;;3.45;2.25;;;;;;;;;;6097008;23;20010;-66
2021/07/10 00:28:14;;;;;;;2.53;1.88;;;;;;;;;;6096817;23;20378;-65
2021/07/10 00:30:40;;;;;;;2.70;2.00;;;;;;;;;;6096919;23;20003;-66
2021/07/10 00:33:05;;;;;;;3.13;1.83;;;;;;;;;;6096858;23;20438;-66
2021/07/10 00:35:30;;;;;;;3.13;2.05;;;;;;;;;;6096848;23;20002;-66
2021/07/10 00:37:56;;;;;;;3.35;1.98;;;;;;;;;;6098035;23;20422;-66
2021/07/10 00:40:21;;;;;;;2.17;1.80;;;;;;;;;;6098758;23;20021;-66
2021/07/10 00:42:47;;;;;;;1.80;1.70;;;;;;;;;;6098814;23;20445;-66
2021/07/10 00:45:14;;;;;;;2.10;1.80;;;;;;;;;;6098710;23;20014;-66
2021/07/10 00:47:40;;;;;;;1.75;1.65;;;;;;;;;;6098714;23;20006;-66
2021/07/10 00:50:13;;;;;;;2.03;1.83;;;;;;;;;;6098105;23;20085;-66
2021/07/10 00:52:39;;;;;;;1.45;1.35;;;;;;;;;;6099021;23;20010;-66
2021/07/10 00:55:04;;;;;;;1.52;1.30;;;;;;;;;;6102206;23;20092;-66
2021/07/10 00:57:31;;;;;;;1.48;1.20;;;;;;;;;;6127921;23;20013;-66
2021/07/10 00:59:57;;;;;;;1.90;1.80;;;;;;;;;;6101908;23;20020;-66
2021/07/10 01:02:23;;;;;;;3.53;1.40;;;;;;;;;;6101949;23;20439;-66
2021/07/10 01:04:49;;;;;;;1.50;1.40;;;;;;;;;;6127731;23;20032;-66
2021/07/10 01:07:14;;;;;;;5.47;1.63;;;;;;;;;;6126352;23;20040;-66
2021/07/10 01:09:40;;;;;;;2.20;1.50;;;;;;;;;;6101838;23;20002;-66
2021/07/10 01:12:05;;;;;;;2.97;1.80;;;;;;;;;;6127716;23;20010;-66
2021/07/10 01:14:31;;;;;;;4.15;1.88;;;;;;;;;;6127687;23;19998;-66
2021/07/10 01:16:56;;;;;;;1.80;1.70;;;;;;;;;;6126307;23;20002;-66
2021/07/10 01:19:27;;;;;;;1.92;1.70;;;;;;;;;;6101889;23;20004;-66
2021/07/10 01:21:52;;;;;;;;;;;;;;;;;;6128094;23;20006;-66
2021/07/10 01:24:17;;;;;;;2.93;1.80;;;;;;;;;;6127483;23;19907;-66
2021/07/10 01:26:43;;;;;;;2.47;1.90;;;;;;;;;;6127561;23;20327;-66
2021/07/10 01:29:08;;;;;;;2.50;1.90;;;;;;;;;;6125773;23;20055;-66
2021/07/10 01:31:34;;;;;;;2.35;2.13;;;;;;;;;;6127341;23;20013;-66
2021/07/10 01:34:00;;;;;;;1.90;1.77;;;;;;;;;;6127539;23;19998;-66
2021/07/10 01:36:27;;;;;;;2.90;2.25;;;;;;;;;;6127392;23;20430;-66
2021/07/10 01:38:53;;;;;;;2.97;2.30;;;;;;;;;;6127340;23;20080;-66
2021/07/10 01:41:18;;;;;;;2.65;2.10;;;;;;;;;;6127338;23;20088;-66
2021/07/10 01:43:43;;;;;;;2.67;2.03;;;;;;;;;;6125638;23;20013;-66
2021/07/10 01:46:09;;;;;;;2.35;1.90;;;;;;;;;;6127380;23;20430;-66
2021/07/10 01:48:34;;;;;;;2.47;1.90;;;;;;;;;;6126833;23;20009;-66
2021/07/10 01:51:00;;;;;;;3.10;2.08;;;;;;;;;;6127261;23;20107;-66
2021/07/10 01:53:25;;;;;;;4.15;1.60;;;;;;;;;;6127180;23;19998;-66
2021/07/10 01:55:50;;;;;;;3.67;1.40;;;;;;;;;;6126535;23;20337;-66
2021/07/10 01:58:16;;;;;;;3.10;1.60;;;;;;;;;;6101266;23;20017;-66
2021/07/10 02:00:43;;;;;;;1.90;1.60;;;;;;;;;;6127173;23;20009;-66
2021/07/10 02:03:09;;;;;;;1.88;1.30;;;;;;;;;;6127283;23;20025;-66
2021/07/10 02:05:34;;;;;;;2.38;1.23;;;;;;;;;;6127203;23;20006;-66
2021/07/10 02:08:00;;;;;;;1.60;1.50;;;;;;;;;;6127241;23;19994;-66
2021/07/10 02:10:27;;;;;;;6.10;1.42;;;;;;;;;;6127097;23;20101;-66
2021/07/10 02:12:56;;;;;;;2.05;1.20;;;;;;;;;;6127303;23;20065;-65
2021/07/10 02:15:22;;;;;;;2.73;1.27;;;;;;;;;;6127315;23;20013;-66
2021/07/10 02:17:47;;;;;;;1.20;1.10;;;;;;;;;;6127109;23;19998;-66
2021/07/10 02:20:14;;;;;;;2.78;1.40;;;;;;;;;;6126924;23;20084;-66
2021/07/10 02:22:39;;;;;;;1.92;1.30;;;;;;;;;;6125458;23;20094;-66
2021/07/10 02:25:06;;;;;;;1.52;1.23;;;;;;;;;;6126859;23;20010;-66
2021/07/10 02:27:33;;;;;;;2.80;1.30;;;;;;;;;;6125428;23;20026;-66
2021/07/10 02:29:58;;;;;;;2.63;1.17;;;;;;;;;;6126781;23;20057;-66
2021/07/10 02:32:24;;;;;;;1.17;1.08;;;;;;;;;;6126848;23;20006;-66
2021/07/10 02:34:49;;;;;;;3.40;1.30;;;;;;;;;;6126841;23;20049;-66
2021/07/10 02:37:15;;;;;;;3.22;1.52;;;;;;;;;;6126925;23;20048;-66
2021/07/10 02:39:40;;;;;;;3.60;1.38;;;;;;;;;;6126684;23;20100;-66
2021/07/10 02:42:05;;;;;;;3.00;1.33;;;;;;;;;;6125371;23;20006;-66
2021/07/10 02:44:31;;;;;;;1.35;1.20;;;;;;;;;;6125522;23;20038;-66
2021/07/10 02:46:56;;;;;;;2.20;1.30;;;;;;;;;;6100968;23;20025;-66
2021/07/10 02:49:22;;;;;;;4.15;1.52;;;;;;;;;;6126626;23;20013;-66
2021/07/10 02:51:47;;;;;;;1.95;1.48;;;;;;;;;;6126871;23;19994;-66
2021/07/10 02:54:13;;;;;;;3.17;1.40;;;;;;;;;;6126641;23;20002;-66
2021/07/10 02:56:38;;;;;;;1.60;1.50;;;;;;;;;;6126561;23;20381;-66
2021/07/10 02:59:04;;;;;;;1.42;1.33;;;;;;;;;;6126832;23;20032;-66
2021/07/10 03:01:29;;;;;;;1.77;1.40;;;;;;;;;;6126591;23;20057;-66
2021/07/10 03:03:55;;;;;;;1.58;1.25;;;;;;;;;;6125310;23;20009;-66
2021/07/10 03:06:20;;;;;;;2.47;1.35;;;;;;;;;;6126685;23;20040;-66
2021/07/10 03:08:45;;;;;;;3.83;1.40;;;;;;;;;;6100712;23;20021;-66
2021/07/10 03:11:12;;;;;;;2.10;1.63;;;;;;;;;;6126692;23;19994;-66
2021/07/10 03:13:37;;;;;;;2.85;1.75;;;;;;;;;;6126451;23;20006;-66
2021/07/10 03:16:03;;;;;;;4.07;1.50;;;;;;;;;;6126459;23;20020;-66
2021/07/10 03:18:28;;;;;;;2.25;1.23;;;;;;;;;;6126534;23;20017;-66
2021/07/10 03:20:53;;;;;;;2.60;1.20;;;;;;;;;;6126562;23;20002;-66
2021/07/10 03:23:19;;;;;;;2.55;1.40;;;;;;;;;;6126817;23;20009;-66
2021/07/10 03:25:47;;;;;;;1.85;1.30;;;;;;;;;;6126503;23;19998;-66
2021/07/10 03:28:12;;;;;;;1.50;1.40;;;;;;;;;;6126465;23;20346;-66
2021/07/10 03:30:38;;;;;;;1.55;1.40;;;;;;;;;;6126196;23;19998;-66
2021/07/10 03:33:04;;;;;;;1.40;1.30;;;;;;;;;;6126527;23;20081;-66
2021/07/10 03:35:30;;;;;;;1.88;1.30;;;;;;;;;;6126457;23;20037;-66
2021/07/10 03:37:57;;;;;;;1.77;1.35;;;;;;;;;;6124943;23;20006;-66
2021/07/10 03:40:24;;;;;;;2.55;1.45;;;;;;;;;;6126405;23;20002;-66
2021/07/10 03:42:50;;;;;;;1.80;1.30;;;;;;;;;;6126290;23;20010;-66
2021/07/10 03:45:16;;;;;;;1.50;1.30;;;;;;;;;;6126268;23;20085;-66
2021/07/10 03:47:41;;;;;;;1.38;1.15;;;;;;;;;;6126231;23;20006;-66
2021/07/10 03:50:08;;;;;;;2.28;1.45;;;;;;;;;;6126455;23;20005;-66
2021/07/10 03:52:33;;;;;;;4.05;1.65;;;;;;;;;;6126401;23;20002;-66
2021/07/10 03:55:01;;;;;;;1.83;1.27;;;;;;;;;;6124540;23;20064;-66
2021/07/10 03:57:29;;;;;;;1.35;1.13;;;;;;;;;;6126596;23;20041;-66
2021/07/10 03:59:54;;;;;;;3.15;1.40;;;;;;;;;;6126310;23;20133;-66
2021/07/10 04:02:20;;;;;;;1.73;1.10;;;;;;;;;;6126205;23;20045;-66
2021/07/10 04:04:45;;;;;;;4.13;1.45;;;;;;;;;;6126214;23;20030;-66
2021/07/10 04:07:10;;;;;;;3.10;1.50;;;;;;;;;;6126165;23;20006;-66
2021/07/10 04:09:36;;;;;;;2.58;1.20;;;;;;;;;;6126133;23;19998;-66
2021/07/10 04:12:01;;;;;;;3.05;1.52;;;;;;;;;;6126656;23;20005;-66
2021/07/10 04:14:29;;;;;;;2.00;1.30;;;;;;;;;;6128187;23;20073;-66
2021/07/10 04:16:54;;;;;;;2.30;1.30;;;;;;;;;;6128261;23;20457;-66
2021/07/10 04:19:20;;;;;;;1.33;1.23;;;;;;;;;;6128105;23;20005;-66
2021/07/10 04:21:45;;;;;;;1.98;1.40;;;;;;;;;;6126783;23;20010;-66
2021/07/10 04:24:11;;;;;;;2.95;1.30;;;;;;;;;;6127930;23;20045;-66
2021/07/10 04:26:36;;;;;;;1.60;1.10;;;;;;;;;;6128200;23;20098;-66
2021/07/10 04:29:01;;;;;;;3.10;1.52;;;;;;;;;;6128063;23;20008;-66
2021/07/10 04:31:27;;;;;;;3.78;1.17;;;;;;;;;;6128167;23;20009;-66
2021/07/10 04:33:52;;;;;;;1.58;1.48;;;;;;;;;;6128026;23;20049;-66
2021/07/10 04:36:18;;;;;;;1.40;1.30;;;;;;;;;;6128005;23;20013;-66
2021/07/10 04:38:43;;;;;;;2.28;1.30;;;;;;;;;;6128097;23;20013;-66
2021/07/10 04:41:09;;;;;;;1.40;1.30;;;;;;;;;;6127881;23;20010;-66
2021/07/10 04:43:35;;;;;;;5.95;1.20;;;;;;;;;;6126650;23;20430;-66
2021/07/10 04:46:01;;;;;;;3.20;1.50;;;;;;;;;;6128053;23;20096;-66
2021/07/10 04:48:26;;;;;;;1.85;1.20;;;;;;;;;;6102226;23;20041;-66
2021/07/10 04:50:51;;;;;;;2.67;1.10;;;;;;;;;;6127844;23;20441;-66
2021/07/10 04:53:17;;;;;;;3.35;1.23;;;;;;;;;;6101964;23;20001;-66
2021/07/10 04:55:43;;;;;;;2.00;1.33;;;;;;;;;;6127408;23;20013;-66
2021/07/10 04:58:08;;;;;;;1.85;1.20;;;;;;;;;;6127879;23;20002;-66
2021/07/10 05:00:34;;;;;;;2.00;1.23;;;;;;;;;;6127852;23;20427;-66
2021/07/10 05:02:59;;;;;;;2.67;1.20;;;;;;;;;;6127883;23;20053;-66
2021/07/10 05:05:25;;;;;;;1.05;0.93;;;;;;;;;;6127808;23;20016;-66
2021/07/10 05:07:50;;;;;;;1.98;1.25;;;;;;;;;;6101735;23;19998;-66
2021/07/10 05:10:16;;;;;;;2.00;0.98;;;;;;;;;;6101608;23;20010;-66
2021/07/10 05:12:42;;;;;;;2.42;1.02;;;;;;;;;;6127530;23;19998;-66
2021/07/10 05:15:08;;;;;;;1.42;1.00;;;;;;;;;;6127729;23;20089;-66
2021/07/10 05:17:33;;;;;;;1.30;0.98;;;;;;;;;;6127576;23;19994;-66
2021/07/10 05:19:59;;;;;;;1.48;0.90;;;;;;;;;;6127148;23;20450;-66
2021/07/10 05:22:24;;;;;;;1.00;0.85;;;;;;;;;;6127732;23;20061;-66
2021/07/10 05:24:49;;;;;;;1.23;0.65;;;;;;;;;;6127439;23;20010;-66
2021/07/10 05:27:15;;;;;;;1.83;0.80;;;;;;;;;;6101509;23;20009;-66
2021/07/10 05:29:41;;;;;;;0.85;0.73;;;;;;;;;;6127481;23;20006;-66
2021/07/10 05:32:07;;;;;;;1.05;0.70;;;;;;;;;;6126051;23;19998;-66
2021/07/10 05:34:32;;;;;;;1.27;0.70;;;;;;;;;;6127415;23;20006;-66
2021/07/10 05:36:58;;;;;;;1.10;1.00;;;;;;;;;;6127411;23;20426;-66
2021/07/10 05:39:23;;;;;;;0.70;0.70;;;;;;;;;;6127534;23;20006;-66
2021/07/10 05:41:49;;;;;;;0.68;0.68;;;;;;;;;;6127651;23;20080;-66
2021/07/10 05:44:14;;;;;;;0.70;0.70;;;;;;;;;;6127465;23;20493;-66
2021/07/10 05:46:39;;;;;;;0.63;0.63;;;;;;;;;;6127494;23;20008;-66
2021/07/10 05:49:05;;;;;;;0.52;0.50;;;;;;;;;;6127257;23;20156;-66
2021/07/10 05:51:30;;;;;;;0.50;0.50;;;;;;;;;;6127205;23;20001;-66
2021/07/10 05:53:56;;;;;;;1.85;0.68;;;;;;;;;;6127475;23;20485;-66
2021/07/10 05:56:21;;;;;;;1.10;0.70;;;;;;;;;;6127027;23;20088;-66
2021/07/10 05:58:47;;;;;;;0.85;0.68;;;;;;;;;;6127150;23;20460;-66
2021/07/10 06:01:13;;;;;;;0.70;0.50;;;;;;;;;;6101271;23;20096;-66
2021/07/10 06:03:38;;;;;;;1.05;0.60;;;;;;;;;;6127111;23;20025;-66
2021/07/10 06:06:04;;;;;;;2.08;0.60;;;;;;;;;;6127062;23;20446;-66
2021/07/10 06:08:29;;;;;;;0.85;0.47;;;;;;;;;;6126957;23;20081;-66
2021/07/10 06:10:55;;;;;;;2.33;0.60;;;;;;;;;;6127150;23;20017;-66
2021/07/10 06:13:21;;;;;;;0.90;0.60;;;;;;;;;;6101028;23;20006;-66
2021/07/10 06:15:46;;;;;;;0.60;0.60;;;;;;;;;;6126409;23;20422;-66
2021/07/10 06:18:12;;;;;;;0.63;0.50;;;;;;;;;;6127163;23;20009;-66
2021/07/10 06:20:39;;;;;;;2.45;0.60;;;;;;;;;;6127053;23;20396;-66
2021/07/10 06:23:05;;;;;;;0.80;0.50;;;;;;;;;;6127070;23;20064;-66
2021/07/10 06:25:34;;;;;;;0.82;0.60;;;;;;;;;;6127093;23;20380;-66
2021/07/10 06:28:00;;;;;;;0.80;0.50;;;;;;;;;;6126922;23;20013;-66
2021/07/10 06:30:25;;;;;;;0.60;0.60;;;;;;;;;;6125328;23;20006;-66
2021/07/10 06:32:51;;;;;;;0.50;0.50;;;;;;;;;;6126925;23;20002;-66
2021/07/10 06:35:16;;;;;;;0.70;0.70;;;;;;;;;;6126688;23;19994;-66
2021/07/10 06:37:42;;;;;;;1.42;0.60;;;;;;;;;;6127019;23;20077;-66
2021/07/10 06:40:08;;;;;;;0.50;0.50;;;;;;;;;;6126735;23;20012;-66
2021/07/10 06:42:34;;;;;;;0.68;0.50;;;;;;;;;;6126764;23;20014;-66
2021/07/10 06:44:59;;;;;;;0.75;0.57;;;;;;;;;;6126956;23;20002;-66
2021/07/10 06:47:25;;;;;;;2.40;0.50;;;;;;;;;;6100881;23;20434;-66
2021/07/10 06:49:50;;;;;;;0.77;0.50;;;;;;;;;;6125046;23;20002;-66
2021/07/10 06:52:17;;;;;;;0.40;0.40;;;;;;;;;;6126727;23;20017;-66
2021/07/10 06:54:42;;;;;;;2.17;0.50;;;;;;;;;;6124878;23;20064;-66
2021/07/10 06:57:08;;;;;;;0.40;0.40;;;;;;;;;;6125280;23;20010;-66
2021/07/10 06:59:33;;;;;;;0.40;0.40;;;;;;;;;;6100747;23;20056;-66
2021/07/10 07:01:58;;;;;;;0.50;0.50;;;;;;;;;;6126639;23;20434;-66
2021/07/10 07:04:24;;;;;;;0.77;0.52;;;;;;;;;;6100730;23;20025;-66
2021/07/10 07:06:49;;;;;;;0.50;0.50;;;;;;;;;;6126753;23;20018;-66
2021/07/10 07:09:15;;;;;;;0.38;0.38;;;;;;;;;;6126005;23;20005;-66
2021/07/10 07:11:40;;;;;;;0.40;0.40;;;;;;;;;;6125289;23;20014;-66
2021/07/10 07:14:06;;;;;;;0.43;0.35;;;;;;;;;;6126650;23;19998;-66
2021/07/10 07:16:32;;;;;;;0.50;0.50;;;;;;;;;;6126595;23;20092;-66
2021/07/10 07:18:58;;;;;;;0.57;0.50;;;;;;;;;;6126495;23;20081;-66
2021/07/10 07:21:24;;;;;;;2.25;0.50;;;;;;;;;;6126540;23;20013;-66
2021/07/10 07:23:51;;;;;;;0.40;0.40;;;;;;;;;;6126637;23;20002;-66
2021/07/10 07:26:19;;;;;;;0.85;0.45;;;;;;;;;;6126589;23;20319;-66
2021/07/10 07:28:47;;;;;;;0.50;0.50;;;;;;;;;;6126289;23;20002;-66
2021/07/10 07:31:12;;;;;;;0.50;0.50;;;;;;;;;;6126499;23;20141;-65
2021/07/10 07:33:38;;;;;;;0.63;0.50;;;;;;;;;;6126553;23;20022;-66
2021/07/10 07:36:03;;;;;;;0.55;0.55;;;;;;;;;;6126379;23;20089;-66
2021/07/10 07:38:29;;;;;;;1.00;0.55;;;;;;;;;;6126521;23;20049;-66
2021/07/10 07:40:55;;;;;;;0.82;0.30;;;;;;;;;;6126599;23;20006;-66
2021/07/10 07:43:20;;;;;;;0.45;0.45;;;;;;;;;;6124903;23;20026;-66
2021/07/10 07:45:46;;;;;;;0.65;0.43;;;;;;;;;;6126206;23;20010;-66
2021/07/10 07:48:11;;;;;;;0.57;0.57;;;;;;;;;;6126005;23;20481;-66
2021/07/10 07:50:37;;;;;;;1.13;0.80;;;;;;;;;;6126215;23;20010;-66
2021/07/10 07:53:02;;;;;;;0.52;0.52;;;;;;;;;;6126322;23;19994;-66
2021/07/10 07:55:28;;;;;;;0.57;0.50;;;;;;;;;;6125736;23;20452;-66
2021/07/10 07:57:53;;;;;;;1.40;0.57;;;;;;;;;;6124982;23;20025;-66
2021/07/10 08:00:20;;;;;;;0.47;0.47;;;;;;;;;;6126144;23;20453;-66
2021/07/10 08:02:46;;;;;;;0.60;0.60;;;;;;;;;;6125932;23;20009;-66
2021/07/10 08:05:13;;;;;;;0.47;0.47;;;;;;;;;;6126574;23;20056;-66
2021/07/10 08:07:38;;;;;;;0.85;0.50;;;;;;;;;;6126403;23;20026;-66
2021/07/10 08:10:07;;;;;;;1.92;0.73;;;;;;;;;;6126287;23;20510;-66
2021/07/10 08:12:32;;;;;;;0.40;0.40;;;;;;;;;;6126335;23;19998;-66
2021/07/10 08:14:58;;;;;;;1.40;0.40;;;;;;;;;;6126232;23;20017;-66
2021/07/10 08:17:23;;;;;;;0.40;0.40;;;;;;;;;;6100228;23;19998;-66
2021/07/10 08:19:49;;;;;;;0.55;0.45;;;;;;;;;;6100375;23;20010;-66
2021/07/10 08:22:14;;;;;;;0.52;0.52;;;;;;;;;;6126416;23;20001;-66
2021/07/10 08:24:40;;;;;;;0.65;0.50;;;;;;;;;;6126227;23;20006;-66
2021/07/10 08:27:06;;;;;;;0.50;0.50;;;;;;;;;;6126221;23;20422;-66
2021/07/10 08:29:32;;;;;;;0.50;0.50;;;;;;;;;;6126154;23;20006;-65
2021/07/10 08:31:57;;;;;;;0.60;0.50;;;;;;;;;;6126173;23;20002;-66
2021/07/10 08:34:23;;;;;;;0.55;0.50;;;;;;;;;;6100158;23;20072;-66
2021/07/10 08:36:48;;;;;;;1.08;0.30;;;;;;;;;;6126220;23;20001;-66
2021/07/10 08:39:14;;;;;;;0.70;0.65;;;;;;;;;;6126067;23;20006;-66
2021/07/10 08:41:40;;;;;;;3.20;0.60;;;;;;;;;;6126067;23;20418;-66
2021/07/10 08:44:05;;;;;;;0.55;0.55;;;;;;;;;;6126346;23;20010;-66
2021/07/10 08:46:31;;;;;;;0.60;0.60;;;;;;;;;;6124697;23;20002;-66
2021/07/10 08:48:57;;;;;;;0.50;0.50;;;;;;;;;;6126023;23;20097;-66
2021/07/10 08:51:22;;;;;;;0.60;0.60;;;;;;;;;;6126126;23;19998;-66
2021/07/10 08:53:49;;;;;;;1.02;0.63;;;;;;;;;;6124616;23;20006;-66
2021/07/10 08:56:14;;;;;;;0.60;0.60;;;;;;;;;;6125538;23;20033;-65
2021/07/10 08:58:40;;;;;;;0.63;0.60;;;;;;;;;;6126958;23;20006;-66
2021/07/10 09:01:07;;;;;;;0.65;0.65;;;;;;;;;;6102127;23;20014;-66
2021/07/10 09:03:33;;;;;;;0.80;0.80;;;;;;;;;;6127760;23;20066;-66
2021/07/10 09:05:59;;;;;;;1.45;0.90;;;;;;;;;;6127877;23;20476;-66
2021/07/10 09:08:25;;;;;;;2.50;1.27;;;;;;;;;;6127669;23;20045;-66
2021/07/10 09:10:56;;;;;;;1.88;1.20;;;;;;;;;;6126242;23;20005;-66
2021/07/10 09:13:29;;;;;;;1.52;1.25;;;;;;;;;;6127710;23;20006;-66
2021/07/10 09:16:00;;;;;;;3.75;1.50;;;;;;;;;;6127757;23;20378;-66
2021/07/10 09:18:34;;;;;;;4.38;1.98;;;;;;;;;;6127767;23;20009;-65
2021/07/10 09:21:00;;;;;;;2.17;1.33;;;;;;;;;;6127722;23;20366;-65
2021/07/10 09:23:39;;;;;;;1.60;1.50;;;;;;;;;;6127668;23;20041;-66
2021/07/10 09:26:31;;;;;;;2.63;1.27;;;;;;;;;;6126373;23;20081;-66
2021/07/10 09:28:59;;;;;;;1.73;1.20;;;;;;;;;;6123264;23;20394;-66
2021/07/10 09:31:25;;;;;;;1.20;1.10;;;;;;;;;;6127497;23;20009;-66
2021/07/10 09:33:58;;;;;;;1.27;1.17;;;;;;;;;;6127598;23;20029;-65
2021/07/10 09:36:23;;;;;;;1.70;1.25;;;;;;;;;;6127578;23;20012;-66
2021/07/10 09:38:53;;;;;;;1.40;1.30;;;;;;;;;;6127477;23;20084;-65
2021/07/10 09:41:23;;;;;;;1.87;1.50;;;;;;;;;;6127315;23;20006;-66
2021/07/10 09:43:49;;;;;;;1.45;1.23;;;;;;;;;;6127396;23;20009;-65
2021/07/10 09:46:23;;;;;;;2.40;1.60;;;;;;;;;;6101322;23;20009;-66
2021/07/10 09:48:49;;;;;;;3.67;1.48;;;;;;;;;;6127292;23;20009;-66
2021/07/10 09:51:24;;;;;;;1.35;1.25;;;;;;;;;;6127453;23;20411;-66
2021/07/10 09:54:01;;;;;;;1.30;1.20;;;;;;;;;;6126733;23;20374;-66
2021/07/10 09:56:28;;;;;;;1.00;1.00;;;;;;;;;;6127132;23;20021;-66
2021/07/10 09:58:54;;;;;;;1.10;0.82;;;;;;;;;;6127347;23;20114;-66
2021/07/10 10:01:35;;;;;;;1.67;0.82;;;;;;;;;;6101542;23;20014;-65
2021/07/10 10:04:02;;;;;;;1.10;1.10;;;;;;;;;;6125813;23;20057;-66
2021/07/10 10:06:34;;;;;;;1.25;0.70;;;;;;;;;;6127246;23;20334;-65
2021/07/10 10:09:00;;;;;;;0.98;0.98;;;;;;;;;;6127073;23;20006;-66
2021/07/10 10:11:46;;;;;;;1.02;0.93;;;;;;;;;;6126985;23;20069;-66
2021/07/10 10:14:11;;;;;;;1.70;1.30;;;;;;;;;;6126624;23;20010;-66
2021/07/10 10:16:42;;;;;;;2.22;1.33;;;;;;;;;;6127032;23;20076;-65
2021/07/10 10:19:10;;;;;;;1.33;1.23;;;;;;;;;;6127253;23;20017;-66
2021/07/10 10:21:35;;;;;;;1.25;1.20;;;;;;;;;;6127141;23;20005;-65
2021/07/10 10:24:01;;;;;;;1.88;1.35;;;;;;;;;;6126939;23;20010;-66
2021/07/10 10:26:27;;;;;;;3.00;1.73;;;;;;;;;;6126937;23;20002;-66
2021/07/10 10:28:53;;;;;;;1.52;1.33;;;;;;;;;;6126850;23;20089;-66
2021/07/10 10:31:19;;;;;;;1.27;1.17;;;;;;;;;;6126756;23;20350;-66
2021/07/10 10:33:46;;;;;;;2.03;1.50;;;;;;;;;;6100850;23;20017;-65
2021/07/10 10:36:11;;;;;;;2.22;1.75;;;;;;;;;;6126842;23;20440;-65
2021/07/10 10:38:37;;;;;;;1.30;1.13;;;;;;;;;;6100796;23;20045;-66
2021/07/10 10:41:03;;;;;;;0.90;0.90;;;;;;;;;;6127117;23;20021;-66
2021/07/10 10:43:29;;;;;;;1.42;0.85;;;;;;;;;;6126831;23;20006;-66
2021/07/10 10:45:55;;;;;;;0.82;0.80;;;;;;;;;;6126729;23;20048;-66
2021/07/10 10:48:40;;;;;;;1.00;0.80;;;;;;;;;;6126739;23;20045;-65
2021/07/10 10:51:24;;;;;;;0.70;0.70;;;;;;;;;;6125278;23;20025;-66
2021/07/10 10:53:50;;;;;;;1.15;0.70;;;;;;;;;;6126673;23;20280;-66
2021/07/10 10:56:35;;;;;;;1.02;0.80;;;;;;;;;;6100518;23;20013;-66
2021/07/10 10:59:01;;;;;;;1.70;0.88;;;;;;;;;;6126480;23;20064;-66
2021/07/10 11:01:30;;;;;;;2.90;0.80;;;;;;;;;;6125221;23;20434;-66
2021/07/10 11:03:56;;;;;;;0.73;0.73;;;;;;;;;;6100873;23;20072;-66
2021/07/10 11:06:30;;;;;;;0.88;0.75;;;;;;;;;;6126650;23;19997;-66
2021/07/10 11:08:55;;;;;;;0.60;0.60;;;;;;;;;;6126495;23;20061;-66
2021/07/10 11:11:22;;;;;;;0.75;0.70;;;;;;;;;;6126661;23;19998;-65
2021/07/10 11:14:08;;;;;;;0.70;0.70;;;;;;;;;;6126631;23;20009;-65
2021/07/10 11:16:34;;;;;;;0.80;0.80;;;;;;;;;;6125125;23;20429;-66
2021/07/10 11:19:04;;;;;;;1.00;0.80;;;;;;;;;;6126550;23;19998;-66
2021/07/10 11:21:38;;;;;;;0.80;0.80;;;;;;;;;;6125030;23;20017;-66
2021/07/10 11:24:19;;;;;;;1.02;0.90;;;;;;;;;;6125172;23;20010;-65
2021/07/10 11:26:54;;;;;;;0.90;0.90;;;;;;;;;;6124877;23;20046;-66
2021/07/10 11:29:36;;;;;;;1.10;0.90;;;;;;;;;;6126385;23;20037;-65
2021/07/10 11:32:11;;;;;;;1.00;1.00;;;;;;;;;;6100683;23;20006;-66
2021/07/10 11:34:47;;;;;;;2.00;0.93;;;;;;;;;;6100559;23;20026;-66
2021/07/10 11:37:13;;;;;;;2.20;1.00;;;;;;;;;;6126574;23;20002;-66
2021/07/10 11:39:40;;;;;;;1.33;1.02;;;;;;;;;;6125020;23;20017;-66
2021/07/10 11:42:17;;;;;;;1.15;1.00;;;;;;;;;;6126206;23;20065;-66
2021/07/10 11:44:43;;;;;;;1.48;0.90;;;;;;;;;;6100488;23;20014;-66
2021/07/10 11:47:08;;;;;;;1.00;1.00;;;;;;;;;;6124977;23;20036;-66
2021/07/10 11:49:40;;;;;;;1.42;1.00;;;;;;;;;;6126494;23;20005;-66
2021/07/10 11:52:05;;;;;;;1.00;0.90;;;;;;;;;;6126544;23;20025;-66
2021/07/10 11:54:31;;;;;;;1.30;0.70;;;;;;;;;;6126386;23;20443;-66
2021/07/10 11:56:57;;;;;;;0.55;0.55;;;;;;;;;;6126217;23;20101;-66
2021/07/10 11:59:23;;;;;;;0.82;0.82;;;;;;;;;;6126437;23;20041;-66
2021/07/10 12:01:49;;;;;;;0.95;0.70;;;;;;;;;;6126497;23;20034;-66
2021/07/10 12:04:14;;;;;;;2.38;0.85;;;;;;;;;;6126230;23;20387;-66
2021/07/10 12:06:39;;;;;;;0.73;0.73;;;;;;;;;;6126249;23;20010;-66
2021/07/10 12:09:05;;;;;;;0.82;0.75;;;;;;;;;;6126208;23;20041;-65
2021/07/10 12:11:30;;;;;;;1.73;0.68;;;;;;;;;;6126266;23;20041;-66
2021/07/10 12:14:02;;;;;;;0.75;0.75;;;;;;;;;;6126195;23;20002;-66
2021/07/10 12:16:28;;;;;;;2.03;0.70;;;;;;;;;;6124800;23;20029;-66
2021/07/10 12:18:53;;;;;;;0.50;0.50;;;;;;;;;;6126228;23;20422;-66
2021/07/10 12:21:19;;;;;;;1.65;0.60;;;;;;;;;;6126364;23;20029;-65
2021/07/10 12:23:56;;;;;;;0.85;0.70;;;;;;;;;;6126128;23;19994;-65
2021/07/10 12:26:23;;;;;;;0.80;0.80;;;;;;;;;;6126172;23;20009;-65
2021/07/10 12:28:49;;;;;;;0.52;0.52;;;;;;;;;;6126082;23;20391;-66
2021/07/10 12:31:15;;;;;;;0.60;0.60;;;;;;;;;;6126283;23;20013;-65
2021/07/10 12:33:52;;;;;;;0.57;0.57;;;;;;;;;;6127282;23;19998;-65
2021/07/10 12:36:23;;;;;;;1.92;1.73;;;;;;;;;;6127807;23;20025;-66
2021/07/10 12:38:48;;;;;;;0.77;0.77;;;;;;;;;;6128163;23;20077;-66
2021/07/10 12:41:22;;;;;;;1.30;0.50;;;;;;;;;;6128156;23;20335;-66
2021/07/10 12:43:47;;;;;;;0.57;0.55;;;;;;;;;;6128061;23;20334;-66
2021/07/10 12:46:14;;;;;;;0.43;0.43;;;;;;;;;;6102030;23;19998;-66
2021/07/10 12:48:39;;;;;;;0.70;0.70;;;;;;;;;;6127971;23;20044;-65
2021/07/10 12:51:05;;;;;;;0.40;0.40;;;;;;;;;;6127834;23;19998;-66
2021/07/10 12:53:37;;;;;;;0.52;0.52;;;;;;;;;;6127877;23;20006;-66
2021/07/10 12:56:41;;;;;;;0.50;0.50;;;;;;;;;;6125643;23;20009;-66
2021/07/10 12:59:08;;;;;;;6.47;3.83;;;;;;;;;;6128160;23;20434;-66
2021/07/10 13:01:33;;;;;;;0.60;0.60;;;;;;;;;;6127891;23;20387;-66
2021/07/10 13:03:59;;;;;;;1.40;0.80;;;;;;;;;;6127721;23;20010;-66
2021/07/10 13:06:24;;;;;;;0.98;0.50;;;;;;;;;;6127729;23;20300;-66
2021/07/10 13:08:54;;;;;;;1.58;0.60;;;;;;;;;;6126179;23;20021;-66
2021/07/10 13:11:21;;;;;;;0.95;0.60;;;;;;;;;;6127960;23;20002;-66
2021/07/10 13:14:05;;;;;;;0.60;0.60;;;;;;;;;;6127777;23;20134;-66
2021/07/10 13:16:31;;;;;;;1.00;0.57;;;;;;;;;;6127754;23;20002;-66
2021/07/10 13:19:00;;;;;;;0.55;0.50;;;;;;;;;;6127584;23;20012;-66
2021/07/10 13:21:27;;;;;;;0.70;0.70;;;;;;;;;;6127566;23;20009;-66
2021/07/10 13:24:05;;;;;;;0.40;0.40;;;;;;;;;;6127679;23;19998;-66
2021/07/10 13:26:33;;;;;;;0.60;0.60;;;;;;;;;;6127667;23;20030;-66
2021/07/10 13:29:16;;;;;;;0.45;0.45;;;;;;;;;;6127451;23;20414;-66
2021/07/10 13:31:42;;;;;;;0.60;0.60;;;;;;;;;;6101238;23;20472;-66
2021/07/10 13:34:17;;;;;;;1.05;0.60;;;;;;;;;;6127427;23;20048;-66
2021/07/10 13:36:46;;;;;;;0.65;0.52;;;;;;;;;;6101782;23;20006;-66
2021/07/10 13:39:18;;;;;;;1.40;0.50;;;;;;;;;;6127491;23;20005;-66
2021/07/10 13:41:46;;;;;;;0.63;0.60;;;;;;;;;;6127496;23;20443;-66
2021/07/10 13:44:13;;;;;;;0.60;0.57;;;;;;;;;;6127501;23;19998;-66
2021/07/10 13:46:38;;;;;;;0.45;0.40;;;;;;;;;;6126153;23;20006;-66
2021/07/10 13:49:22;;;;;;;0.98;0.60;;;;;;;;;;6126010;23;20378;-66
2021/07/10 13:51:49;;;;;;;0.50;0.50;;;;;;;;;;6127546;23;20009;-66
2021/07/10 13:54:26;;;;;;;0.50;0.50;;;;;;;;;;6101171;23;20351;-66
2021/07/10 13:57:08;;;;;;;0.50;0.50;;;;;;;;;;6125753;23;20018;-66
2021/07/10 13:59:33;;;;;;;0.47;0.47;;;;;;;;;;6126003;23;20094;-66
2021/07/10 14:01:59;;;;;;;0.50;0.50;;;;;;;;;;6125897;23;20025;-66
2021/07/10 14:04:24;;;;;;;0.50;0.50;;;;;;;;;;6124267;23;20006;-66
2021/07/10 14:06:50;;;;;;;0.50;0.50;;;;;;;;;;6125835;23;20002;-66
2021/07/10 14:09:16;;;;;;;0.60;0.60;;;;;;;;;;6125624;23;20010;-66
2021/07/10 14:11:41;;;;;;;1.00;0.50;;;;;;;;;;6125865;23;19997;-66
2021/07/10 14:14:07;;;;;;;0.40;0.40;;;;;;;;;;6125955;23;20076;-66
2021/07/10 14:16:33;;;;;;;2.05;0.60;;;;;;;;;;6125726;23;20001;-66
2021/07/10 14:18:59;;;;;;;2.85;0.70;;;;;;;;;;6125679;23;20081;-66
2021/07/10 14:21:24;;;;;;;2.17;0.60;;;;;;;;;;6125663;23;20032;-66
2021/07/10 14:23:50;;;;;;;1.98;0.65;;;;;;;;;;6099922;23;20017;-66
2021/07/10 14:26:15;;;;;;;0.63;0.63;;;;;;;;;;6125144;23;20006;-66
2021/07/10 14:28:41;;;;;;;0.60;0.60;;;;;;;;;;6125806;23;20010;-66
2021/07/10 14:31:06;;;;;;;1.88;0.60;;;;;;;;;;6125846;23;19998;-66
2021/07/10 14:33:32;;;;;;;1.60;0.50;;;;;;;;;;6099901;23;20006;-66
2021/07/10 14:35:57;;;;;;;1.67;1.58;;;;;;;;;;6125690;23;20438;-66
2021/07/10 14:38:23;;;;;;;0.75;0.70;;;;;;;;;;6125638;23;20330;-66
2021/07/10 14:40:48;;;;;;;0.70;0.70;;;;;;;;;;6099929;23;19998;-66
2021/07/10 14:43:14;;;;;;;0.63;0.63;;;;;;;;;;6124047;23;20018;-66